GLD166 SUMU-SABE
Flight info
| Callsign | GLD166 |
|---|---|
| Flight time | N/A |
| Altitude | 22000 |
| Route | DCT DAGUS DCT UGIMI UGIM8R |
| Aircraft | A320/M-SDFGIRY/S |
Departure
| Time | 2026-04-28 00:46 |
|---|---|
| Airport | Carrasco General Cesáreo L. Berisso International Airport (SUMU) |
Arrival
| Time | N/A |
|---|---|
| Airport | Aeroparque Jorge Newbery (SABE) |
| Time | Latitude | Longitude | Altitude | Speed | Heading |
|---|---|---|---|---|---|
| 2026-04-28 00:35 | -34.83555 | -56.01650 | 93 ft | 0 kts | 150° |
| 2026-04-28 00:37 | -34.83552 | -56.01652 | 93 ft | 2 kts | 150° |
| 2026-04-28 00:38 | -34.83538 | -56.01662 | 93 ft | 2 kts | 150° |
| 2026-04-28 00:38 | -34.83523 | -56.01672 | 92 ft | 2 kts | 150° |
| 2026-04-28 00:38 | -34.83509 | -56.01682 | 94 ft | 2 kts | 150° |
| 2026-04-28 00:38 | -34.83494 | -56.01692 | 96 ft | 2 kts | 150° |
| 2026-04-28 00:39 | -34.83480 | -56.01702 | 95 ft | 2 kts | 150° |
| 2026-04-28 00:39 | -34.83468 | -56.01710 | 94 ft | 0 kts | 150° |
| 2026-04-28 00:40 | -34.83481 | -56.01712 | 94 ft | 3 kts | 197° |
| 2026-04-28 00:40 | -34.83502 | -56.01753 | 93 ft | 10 kts | 246° |
| 2026-04-28 00:40 | -34.83548 | -56.01850 | 91 ft | 17 kts | 237° |
| 2026-04-28 00:41 | -34.83623 | -56.01985 | 91 ft | 22 kts | 233° |
| 2026-04-28 00:41 | -34.83720 | -56.02148 | 89 ft | 26 kts | 234° |
| 2026-04-28 00:41 | -34.83879 | -56.02242 | 84 ft | 29 kts | 180° |
| 2026-04-28 00:41 | -34.83953 | -56.02359 | 82 ft | 17 kts | 320° |
| 2026-04-28 00:42 | -34.83879 | -56.02399 | 80 ft | 8 kts | 272° |
| 2026-04-28 00:42 | -34.83920 | -56.02472 | 70 ft | 14 kts | 227° |
| 2026-04-28 00:42 | -34.83948 | -56.02600 | 76 ft | 19 kts | 270° |
| 2026-04-28 00:42 | -34.83996 | -56.02761 | 70 ft | 23 kts | 237° |
| 2026-04-28 00:43 | -34.84015 | -56.02937 | 72 ft | 1 kts | 270° |
| 2026-04-28 00:43 | -34.84015 | -56.02971 | 71 ft | 7 kts | 270° |
| 2026-04-28 00:43 | -34.84015 | -56.03052 | 70 ft | 12 kts | 270° |
| 2026-04-28 00:43 | -34.84018 | -56.03074 | 71 ft | 1 kts | 251° |
| 2026-04-28 00:44 | -34.84034 | -56.03088 | 66 ft | 8 kts | 198° |
| 2026-04-28 00:44 | -34.84145 | -56.03098 | 69 ft | 19 kts | 185° |
| 2026-04-28 00:44 | -34.84219 | -56.03073 | 66 ft | 9 kts | 97° |
| 2026-04-28 00:44 | -34.84195 | -56.03053 | 67 ft | 6 kts | 333° |
| 2026-04-28 00:45 | -34.84097 | -56.03081 | 67 ft | 22 kts | 357° |
| 2026-04-28 00:45 | -34.83772 | -56.03091 | 68 ft | 83 kts | 359° |
| 2026-04-28 00:45 | -34.82979 | -56.03109 | 89 ft | 140 kts | 357° |
| 2026-04-28 00:45 | -34.81977 | -56.03050 | 586 ft | 146 kts | 359° |
| 2026-04-28 00:46 | -34.80954 | -56.03053 | 1214 ft | 148 kts | 353° |
| 2026-04-28 00:46 | -34.79871 | -56.03084 | 1607 ft | 166 kts | 352° |
| 2026-04-28 00:46 | -34.78752 | -56.03506 | 1886 ft | 178 kts | 315° |
| 2026-04-28 00:46 | -34.78061 | -56.04805 | 2249 ft | 195 kts | 280° |
| 2026-04-28 00:47 | -34.78195 | -56.06502 | 2723 ft | 219 kts | 244° |
| 2026-04-28 00:47 | -34.79351 | -56.07833 | 3335 ft | 245 kts | 207° |
| 2026-04-28 00:47 | -34.81016 | -56.08446 | 4300 ft | 255 kts | 194° |
| 2026-04-28 00:47 | -34.82792 | -56.08774 | 5337 ft | 261 kts | 189° |
| 2026-04-28 00:48 | -34.84616 | -56.09018 | 6366 ft | 265 kts | 188° |
| 2026-04-28 00:48 | -34.86464 | -56.09258 | 7342 ft | 269 kts | 189° |
| 2026-04-28 00:48 | -34.88332 | -56.09527 | 8319 ft | 272 kts | 190° |
| 2026-04-28 00:48 | -34.90220 | -56.09834 | 9304 ft | 275 kts | 192° |
| 2026-04-28 00:49 | -34.92112 | -56.10166 | 10246 ft | 279 kts | 192° |
| 2026-04-28 00:49 | -34.94095 | -56.10536 | 10655 ft | 301 kts | 193° |
| 2026-04-28 00:49 | -34.96254 | -56.10949 | 10916 ft | 325 kts | 193° |
| 2026-04-28 00:49 | -34.98498 | -56.11678 | 11108 ft | 344 kts | 206° |
| 2026-04-28 00:50 | -35.00543 | -56.13268 | 11450 ft | 355 kts | 224° |
| 2026-04-28 00:50 | -35.02115 | -56.15591 | 12109 ft | 357 kts | 240° |
| 2026-04-28 00:50 | -35.03033 | -56.18405 | 12848 ft | 360 kts | 257° |
| 2026-04-28 00:50 | -35.03184 | -56.21456 | 13622 ft | 364 kts | 272° |
| 2026-04-28 00:51 | -35.02970 | -56.24546 | 14356 ft | 366 kts | 273° |
| 2026-04-28 00:51 | -35.02748 | -56.27649 | 15072 ft | 368 kts | 273° |
| 2026-04-28 00:51 | -35.02521 | -56.30765 | 15775 ft | 370 kts | 273° |
| 2026-04-28 00:51 | -35.02292 | -56.33899 | 16486 ft | 372 kts | 273° |
| 2026-04-28 00:52 | -35.02065 | -56.37054 | 17181 ft | 374 kts | 273° |
| 2026-04-28 00:52 | -35.01837 | -56.40229 | 17863 ft | 377 kts | 273° |
| 2026-04-28 00:52 | -35.01608 | -56.43427 | 18510 ft | 379 kts | 273° |
| 2026-04-28 00:52 | -35.01377 | -56.46640 | 19101 ft | 381 kts | 273° |
| 2026-04-28 00:53 | -35.01145 | -56.49867 | 19683 ft | 383 kts | 273° |
| 2026-04-28 00:53 | -35.00908 | -56.53155 | 20255 ft | 385 kts | 273° |
| 2026-04-28 00:53 | -35.00669 | -56.56419 | 20797 ft | 387 kts | 273° |
| 2026-04-28 00:53 | -35.00426 | -56.59698 | 21304 ft | 389 kts | 273° |
| 2026-04-28 00:54 | -35.00179 | -56.62994 | 21788 ft | 391 kts | 273° |
| 2026-04-28 00:54 | -34.99930 | -56.66300 | 22029 ft | 392 kts | 273° |
| 2026-04-28 00:54 | -34.99683 | -56.69649 | 22077 ft | 402 kts | 273° |
| 2026-04-28 00:54 | -34.99432 | -56.73085 | 22074 ft | 411 kts | 273° |
| 2026-04-28 00:55 | -34.99176 | -56.76568 | 22072 ft | 413 kts | 273° |
| 2026-04-28 00:55 | -34.98915 | -56.80065 | 22076 ft | 414 kts | 273° |
| 2026-04-28 00:55 | -34.98649 | -56.83562 | 22075 ft | 414 kts | 273° |
| 2026-04-28 00:55 | -34.98383 | -56.87062 | 22077 ft | 415 kts | 273° |
| 2026-04-28 00:56 | -34.98273 | -56.90568 | 22080 ft | 414 kts | 268° |
| 2026-04-28 00:56 | -34.98267 | -56.94073 | 22076 ft | 414 kts | 268° |
| 2026-04-28 00:56 | -34.98259 | -56.97586 | 22076 ft | 414 kts | 269° |
| 2026-04-28 00:56 | -34.98246 | -57.01097 | 22079 ft | 414 kts | 269° |
| 2026-04-28 00:57 | -34.98228 | -57.04608 | 22076 ft | 414 kts | 269° |
| 2026-04-28 00:57 | -34.98209 | -57.08115 | 22071 ft | 414 kts | 269° |
| 2026-04-28 00:57 | -34.98190 | -57.11626 | 22067 ft | 414 kts | 269° |